Walla Walla Regional Airport
KALW : now visible

Airfield :











YOU CAN JOIN US ON...

 
LOGIN :

Register | Disclaimer

   EN    FR    IT 

 









Legend :    VFR   Marginal VFR   IFR   Intensive IFR   Very Intensive IFR
Visi :
Ceiling :
>= 8 km
>= 3000ft
5 to 8 km
1000 to 3000 ft
1500m to 5 km
500 to 1000 ft
800 to 1500m
200 to 500 ft
< 800m
< 200 ft
Symbols :   Thunderstorms  Fog  Heavy snow  Heavy precipitations  Wind > 20 kt






- Airport Elevation : 1194 ft
- IATA code : ALW


KALW - Walla Walla Regional

CURRENT METAR :
  • 070553Z AUTO 18011KT 10SM TS OVC100 19/09 A2986 RMK AO2 LTG DSNT N AND S RAB30E46 TSB33 SLP106 P0000 60000 T01890089 10300 20183 53021

EXPIRED METARs :
  • 070539Z AUTO 21012KT 10SM -TSRA OVC100 18/09 A2985 RMK AO2 LTG DSNT S RAB30 TSB33 P0000 T01830094
  • 070453Z AUTO 19010KT 10SM CLR 22/06 A2982 RMK AO2 SLP090 T02220056
  • 070353Z AUTO 23005KT 10SM CLR 24/04 A2979 RMK AO2 SLP081 T02390044

TAF KALW
Valid from the 07 at 06:00 until the 08 at 06:00 UTC


070539Z 0706/0806 19014G20KT P6SM -TSRA BKN050CB BKN100
TEMPO 0706/0708 VRB20G35KT 4SM TSRA OVC040CB
FM070900 19015G20KT P6SM VCTS BKN050CB OVC100
FM071200 21014G20KT P6SM FEW070 SCT250
FM072000 23015G23KT P6SM SCT090 BKN250
KZSE FIR / North America



MET'MAP, your aeronautical weather chart ! - Copyright ORBIFLY December 2007 - Disclaimer

ORBIFLY MET'MAP TEAM :

Programming & Development : Alexandra Zaïnal
Concept & original design : Baudouin d'Aumeries
Assistance for programming : Marc-Olivier Méhu
Technical & hardware support : Manuel Goepfert

Contact : metmap@orbifly.com




SOURCES & CREDITS :

   NOAA       Earth
Advisory